PWSweather.com
Personal Weather Stations
Station Observations
WODONGA
Wodonga, WodongaAU 3690

WodongaWodongaAU 3690

Lat: -36.121, Lon: 146.87

Elevation: 541

Station Type: Weather Station

http://www.wodongaweather.net

High Low Average
Temperature 69.6°F20.9°F 41.5°F5.3°F 53.5°F11.9°F
Dew Point 48.1°F8.9°F 38.3°F3.5°F 42.7°F5.9°F
Winds 9.3 mph ESE15.0 mph ESE Calm Calm 2.1 mph 3.4 mph
Wind Gusts 13.6 mph21.9 mph -- 3.5 mph5.6 mph
Humidity 90% 41% 69%
Pressure 30.37 in1028.40 in 30.23 in1023.70 in -
Precipitation 0.00 in0.00 in - -
Hour Temp Dew Point Humidity Winds Wind Gusts Pressure Precip Precip Rate Daily Precip Total
12:00 AM 48.0°F8.9°C 42.8°F6.0°C 82% Calm Calm -- 30.23 in1023.7 mb 0.00 in0.0 mm 0.00 in0.0 mm 0.00 in0.0 mm
12:05 AM 47.8°F8.8°C 42.6°F5.9°C 82% Calm Calm -- 30.23 in1023.7 mb 0.00 in0.0 mm 0.00 in0.0 mm 0.00 in0.0 mm
12:10 AM 47.7°F8.7°C 42.8°F6.0°C 83% 0.1 mph S0.2 kmh S 0.7 mph1.1 kmh 30.23 in1023.7 mb 0.00 in0.0 mm 0.00 in0.0 mm 0.00 in0.0 mm
12:15 AM 47.5°F8.6°C 42.6°F5.9°C 83% 0.3 mph SSW0.5 kmh SSW 0.7 mph1.1 kmh 30.23 in1023.7 mb 0.00 in0.0 mm 0.00 in0.0 mm 0.00 in0.0 mm
12:20 AM 47.5°F8.6°C 42.6°F5.9°C 83% 0.3 mph SSW0.5 kmh SSW 0.7 mph1.1 kmh 30.23 in1023.7 mb 0.00 in0.0 mm 0.00 in0.0 mm 0.00 in0.0 mm
12:25 AM 47.3°F8.5°C 42.4°F5.8°C 83% 0.3 mph S0.5 kmh S 1.6 mph2.6 kmh 30.23 in1023.7 mb 0.00 in0.0 mm 0.00 in0.0 mm 0.00 in0.0 mm
12:30 AM 47.1°F8.4°C 42.2°F5.7°C 83% 0.7 mph S1.1 kmh S 1.6 mph2.6 kmh 30.23 in1023.7 mb 0.00 in0.0 mm 0.00 in0.0 mm 0.00 in0.0 mm
12:35 AM 46.9°F8.3°C 42.1°F5.6°C 83% 0.6 mph S1.0 kmh S 1.6 mph2.6 kmh 30.23 in1023.7 mb 0.00 in0.0 mm 0.00 in0.0 mm 0.00 in0.0 mm
12:40 AM 46.9°F8.3°C 42.1°F5.6°C 83% 0.5 mph SE0.8 kmh SE 1.6 mph2.6 kmh 30.23 in1023.7 mb 0.00 in0.0 mm 0.00 in0.0 mm 0.00 in0.0 mm
12:45 AM 46.8°F8.2°C 42.2°F5.7°C 84% 0.3 mph SE0.5 kmh SE 1.6 mph2.6 kmh 30.23 in1023.7 mb 0.00 in0.0 mm 0.00 in0.0 mm 0.00 in0.0 mm
12:50 AM 46.6°F8.1°C 42.0°F5.6°C 84% Calm Calm -- 30.23 in1023.7 mb 0.00 in0.0 mm 0.00 in0.0 mm 0.00 in0.0 mm
12:55 AM 46.2°F7.9°C 41.7°F5.4°C 84% 0.1 mph S0.2 kmh S 0.7 mph1.1 kmh 30.23 in1023.7 mb 0.00 in0.0 mm 0.00 in0.0 mm 0.00 in0.0 mm
01:00 AM 46.0°F7.8°C 41.8°F5.4°C 85% 0.1 mph S0.2 kmh S 0.7 mph1.1 kmh 30.24 in1024.0 mb 0.00 in0.0 mm 0.00 in0.0 mm 0.00 in0.0 mm
01:05 AM 46.0°F7.8°C 41.8°F5.4°C 85% Calm Calm 0.7 mph1.1 kmh 30.23 in1023.7 mb 0.00 in0.0 mm 0.00 in0.0 mm 0.00 in0.0 mm
01:10 AM 45.9°F7.7°C 41.6°F5.3°C 85% 0.3 mph SW0.5 kmh SW 0.7 mph1.1 kmh 30.23 in1023.7 mb 0.00 in0.0 mm 0.00 in0.0 mm 0.00 in0.0 mm
01:15 AM 46.0°F7.8°C 41.8°F5.4°C 85% 0.3 mph SW0.5 kmh SW 0.7 mph1.1 kmh 30.24 in1024.0 mb 0.00 in0.0 mm 0.00 in0.0 mm 0.00 in0.0 mm
01:20 AM 45.9°F7.7°C 41.6°F5.3°C 85% 0.1 mph S0.2 kmh S 0.7 mph1.1 kmh 30.24 in1024.0 mb 0.00 in0.0 mm 0.00 in0.0 mm 0.00 in0.0 mm
01:25 AM 45.7°F7.6°C 41.4°F5.2°C 85% Calm Calm -- 30.24 in1024.0 mb 0.00 in0.0 mm 0.00 in0.0 mm 0.00 in0.0 mm
01:30 AM 45.7°F7.6°C 41.4°F5.2°C 85% Calm Calm -- 30.23 in1023.7 mb 0.00 in0.0 mm 0.00 in0.0 mm 0.00 in0.0 mm
01:35 AM 45.7°F7.6°C 41.4°F5.2°C 85% Calm Calm -- 30.24 in1024.0 mb 0.00 in0.0 mm 0.00 in0.0 mm 0.00 in0.0 mm
01:40 AM 45.5°F7.5°C 41.3°F5.2°C 85% Calm Calm -- 30.24 in1024.0 mb 0.00 in0.0 mm 0.00 in0.0 mm 0.00 in0.0 mm
01:45 AM 45.5°F7.5°C 41.3°F5.2°C 85% Calm Calm -- 30.24 in1024.0 mb 0.00 in0.0 mm 0.00 in0.0 mm 0.00 in0.0 mm
01:50 AM 45.5°F7.5°C 41.3°F5.2°C 85% Calm Calm -- 30.24 in1024.0 mb 0.00 in0.0 mm 0.00 in0.0 mm 0.00 in0.0 mm
01:55 AM 45.5°F7.5°C 41.3°F5.2°C 85% Calm Calm -- 30.24 in1024.0 mb 0.00 in0.0 mm 0.00 in0.0 mm 0.00 in0.0 mm
02:00 AM 45.0°F7.2°C 40.7°F4.8°C 85% Calm Calm -- 30.24 in1024.0 mb 0.00 in0.0 mm 0.00 in0.0 mm 0.00 in0.0 mm
02:05 AM 45.0°F7.2°C 41.0°F5.0°C 86% Calm Calm -- 30.24 in1024.0 mb 0.00 in0.0 mm 0.00 in0.0 mm 0.00 in0.0 mm
02:10 AM 45.0°F7.2°C 41.0°F5.0°C 86% Calm Calm -- 30.24 in1024.0 mb 0.00 in0.0 mm 0.00 in0.0 mm 0.00 in0.0 mm
02:15 AM 45.0°F7.2°C 41.0°F5.0°C 86% Calm Calm -- 30.24 in1024.0 mb 0.00 in0.0 mm 0.00 in0.0 mm 0.00 in0.0 mm
02:20 AM 44.8°F7.1°C 40.6°F4.8°C 85% Calm Calm -- 30.24 in1024.0 mb 0.00 in0.0 mm 0.00 in0.0 mm 0.00 in0.0 mm
02:25 AM 44.8°F7.1°C 40.6°F4.8°C 85% 0.3 mph S0.5 kmh S 1.6 mph2.6 kmh 30.24 in1024.0 mb 0.00 in0.0 mm 0.00 in0.0 mm 0.00 in0.0 mm
02:30 AM 44.8°F7.1°C 40.6°F4.8°C 85% 0.4 mph SSW0.6 kmh SSW 1.6 mph2.6 kmh 30.24 in1024.0 mb 0.00 in0.0 mm 0.00 in0.0 mm 0.00 in0.0 mm
02:35 AM 44.6°F7.0°C 40.7°F4.8°C 86% 0.4 mph S0.6 kmh S 0.7 mph1.1 kmh 30.24 in1024.0 mb 0.00 in0.0 mm 0.00 in0.0 mm 0.00 in0.0 mm
02:40 AM 44.4°F6.9°C 40.2°F4.6°C 85% 0.5 mph S0.8 kmh S 0.7 mph1.1 kmh 30.24 in1024.0 mb 0.00 in0.0 mm 0.00 in0.0 mm 0.00 in0.0 mm
02:45 AM 44.2°F6.8°C 40.3°F4.6°C 86% 0.4 mph SSW0.6 kmh SSW 0.7 mph1.1 kmh 30.24 in1024.0 mb 0.00 in0.0 mm 0.00 in0.0 mm 0.00 in0.0 mm
02:50 AM 44.2°F6.8°C 40.3°F4.6°C 86% 0.6 mph S1.0 kmh S 0.7 mph1.1 kmh 30.24 in1024.0 mb 0.00 in0.0 mm 0.00 in0.0 mm 0.00 in0.0 mm
02:55 AM 44.1°F6.7°C 40.1°F4.5°C 86% 0.7 mph S1.1 kmh S 1.6 mph2.6 kmh 30.24 in1024.0 mb 0.00 in0.0 mm 0.00 in0.0 mm 0.00 in0.0 mm
03:00 AM 44.1°F6.7°C 40.1°F4.5°C 86% 1.1 mph S1.8 kmh S 1.6 mph2.6 kmh 30.24 in1024.0 mb 0.00 in0.0 mm 0.00 in0.0 mm 0.00 in0.0 mm
03:05 AM 44.1°F6.7°C 40.1°F4.5°C 86% 1.3 mph S2.1 kmh S 2.2 mph3.5 kmh 30.24 in1024.0 mb 0.00 in0.0 mm 0.00 in0.0 mm 0.00 in0.0 mm
03:10 AM 43.7°F6.5°C 39.8°F4.3°C 86% 1.4 mph S2.3 kmh S 2.2 mph3.5 kmh 30.24 in1024.0 mb 0.00 in0.0 mm 0.00 in0.0 mm 0.00 in0.0 mm
03:15 AM 43.5°F6.4°C 39.6°F4.2°C 86% 1.3 mph SSW2.1 kmh SSW 2.2 mph3.5 kmh 30.24 in1024.0 mb 0.00 in0.0 mm 0.00 in0.0 mm 0.00 in0.0 mm
03:20 AM 43.5°F6.4°C 39.6°F4.2°C 86% 1.1 mph S1.8 kmh S 1.6 mph2.6 kmh 30.24 in1024.0 mb 0.00 in0.0 mm 0.00 in0.0 mm 0.00 in0.0 mm
03:25 AM 43.2°F6.2°C 39.3°F4.1°C 86% 0.9 mph SE1.4 kmh SE 1.6 mph2.6 kmh 30.24 in1024.0 mb 0.00 in0.0 mm 0.00 in0.0 mm 0.00 in0.0 mm
03:30 AM 43.3°F6.3°C 39.4°F4.1°C 86% 1.0 mph SE1.6 kmh SE 1.6 mph2.6 kmh 30.24 in1024.0 mb 0.00 in0.0 mm 0.00 in0.0 mm 0.00 in0.0 mm
03:35 AM 43.2°F6.2°C 39.3°F4.1°C 86% 1.5 mph SE2.4 kmh SE 1.6 mph2.6 kmh 30.24 in1024.0 mb 0.00 in0.0 mm 0.00 in0.0 mm 0.00 in0.0 mm
03:40 AM 43.2°F6.2°C 39.3°F4.1°C 86% 1.3 mph SE2.1 kmh SE 1.6 mph2.6 kmh 30.24 in1024.0 mb 0.00 in0.0 mm 0.00 in0.0 mm 0.00 in0.0 mm
03:45 AM 43.2°F6.2°C 39.3°F4.1°C 86% 1.1 mph SE1.8 kmh SE 1.6 mph2.6 kmh 30.24 in1024.0 mb 0.00 in0.0 mm 0.00 in0.0 mm 0.00 in0.0 mm
03:50 AM 43.2°F6.2°C 39.3°F4.1°C 86% 1.3 mph SSE2.1 kmh SSE 1.6 mph2.6 kmh 30.24 in1024.0 mb 0.00 in0.0 mm 0.00 in0.0 mm 0.00 in0.0 mm
03:55 AM 42.8°F6.0°C 38.9°F3.8°C 86% 1.2 mph S1.9 kmh S 1.6 mph2.6 kmh 30.24 in1024.0 mb 0.00 in0.0 mm 0.00 in0.0 mm 0.00 in0.0 mm
04:00 AM 42.6°F5.9°C 39.0°F3.9°C 87% 1.1 mph S1.8 kmh S 1.6 mph2.6 kmh 30.24 in1024.0 mb 0.00 in0.0 mm 0.00 in0.0 mm 0.00 in0.0 mm
04:05 AM 42.4°F5.8°C 38.9°F3.8°C 87% 1.1 mph SE1.8 kmh SE 1.6 mph2.6 kmh 30.24 in1024.0 mb 0.00 in0.0 mm 0.00 in0.0 mm 0.00 in0.0 mm
04:10 AM 42.4°F5.8°C 38.9°F3.8°C 87% 0.7 mph ESE1.1 kmh ESE 1.6 mph2.6 kmh 30.25 in1024.4 mb 0.00 in0.0 mm 0.00 in0.0 mm 0.00 in0.0 mm
04:15 AM 42.6°F5.9°C 39.0°F3.9°C 87% 0.8 mph SE1.3 kmh SE 1.6 mph2.6 kmh 30.25 in1024.4 mb 0.00 in0.0 mm 0.00 in0.0 mm 0.00 in0.0 mm
04:20 AM 42.6°F5.9°C 39.0°F3.9°C 87% 1.3 mph S2.1 kmh S 1.6 mph2.6 kmh 30.25 in1024.4 mb 0.00 in0.0 mm 0.00 in0.0 mm 0.00 in0.0 mm
04:25 AM 42.6°F5.9°C 39.0°F3.9°C 87% 1.4 mph S2.3 kmh S 1.6 mph2.6 kmh 30.25 in1024.4 mb 0.00 in0.0 mm 0.00 in0.0 mm 0.00 in0.0 mm
04:30 AM 42.4°F5.8°C 38.9°F3.8°C 87% 0.8 mph S1.3 kmh S 1.6 mph2.6 kmh 30.25 in1024.4 mb 0.00 in0.0 mm 0.00 in0.0 mm 0.00 in0.0 mm
04:35 AM 42.4°F5.8°C 38.9°F3.8°C 87% 0.1 mph SSW0.2 kmh SSW 0.7 mph1.1 kmh 30.25 in1024.4 mb 0.00 in0.0 mm 0.00 in0.0 mm 0.00 in0.0 mm
04:40 AM 42.4°F5.8°C 38.9°F3.8°C 87% Calm Calm -- 30.26 in1024.7 mb 0.00 in0.0 mm 0.00 in0.0 mm 0.00 in0.0 mm
04:45 AM 42.3°F5.7°C 38.7°F3.7°C 87% 0.2 mph SW0.3 kmh SW 1.6 mph2.6 kmh 30.25 in1024.4 mb 0.00 in0.0 mm 0.00 in0.0 mm 0.00 in0.0 mm
04:50 AM 42.4°F5.8°C 38.9°F3.8°C 87% 0.6 mph SW1.0 kmh SW 1.6 mph2.6 kmh 30.26 in1024.7 mb 0.00 in0.0 mm 0.00 in0.0 mm 0.00 in0.0 mm
04:55 AM 42.3°F5.7°C 38.7°F3.7°C 87% 0.5 mph SW0.8 kmh SW 1.6 mph2.6 kmh 30.26 in1024.7 mb 0.00 in0.0 mm 0.00 in0.0 mm 0.00 in0.0 mm
05:00 AM 42.3°F5.7°C 38.7°F3.7°C 87% 0.1 mph N0.2 kmh N 0.7 mph1.1 kmh 30.26 in1024.7 mb 0.00 in0.0 mm 0.00 in0.0 mm 0.00 in0.0 mm
05:05 AM 42.3°F5.7°C 38.7°F3.7°C 87% Calm Calm -- 30.26 in1024.7 mb 0.00 in0.0 mm 0.00 in0.0 mm 0.00 in0.0 mm
05:10 AM 42.3°F5.7°C 38.7°F3.7°C 87% Calm Calm -- 30.26 in1024.7 mb 0.00 in0.0 mm 0.00 in0.0 mm 0.00 in0.0 mm
05:15 AM 42.1°F5.6°C 38.5°F3.6°C 87% Calm Calm -- 30.27 in1025.1 mb 0.00 in0.0 mm 0.00 in0.0 mm 0.00 in0.0 mm
05:20 AM 41.7°F5.4°C 38.4°F3.6°C 88% 0.3 mph S0.5 kmh S 0.7 mph1.1 kmh 30.27 in1025.1 mb 0.00 in0.0 mm 0.00 in0.0 mm 0.00 in0.0 mm
05:25 AM 41.7°F5.4°C 38.4°F3.6°C 88% 0.5 mph S0.8 kmh S 0.7 mph1.1 kmh 30.26 in1024.7 mb 0.00 in0.0 mm 0.00 in0.0 mm 0.00 in0.0 mm
05:30 AM 41.7°F5.4°C 38.4°F3.6°C 88% 0.4 mph S0.6 kmh S 0.7 mph1.1 kmh 30.27 in1025.1 mb 0.00 in0.0 mm 0.00 in0.0 mm 0.00 in0.0 mm
05:35 AM 41.9°F5.5°C 38.6°F3.7°C 88% 0.4 mph SW0.6 kmh SW 0.7 mph1.1 kmh 30.27 in1025.1 mb 0.00 in0.0 mm 0.00 in0.0 mm 0.00 in0.0 mm
05:40 AM 41.9°F5.5°C 38.6°F3.7°C 88% 0.6 mph SSW1.0 kmh SSW 0.7 mph1.1 kmh 30.27 in1025.1 mb 0.00 in0.0 mm 0.00 in0.0 mm 0.00 in0.0 mm
05:45 AM 41.9°F5.5°C 38.6°F3.7°C 88% 0.4 mph S0.6 kmh S 0.7 mph1.1 kmh 30.27 in1025.1 mb 0.00 in0.0 mm 0.00 in0.0 mm 0.00 in0.0 mm
05:50 AM 41.9°F5.5°C 38.6°F3.7°C 88% 0.3 mph S0.5 kmh S 0.7 mph1.1 kmh 30.27 in1025.1 mb 0.00 in0.0 mm 0.00 in0.0 mm 0.00 in0.0 mm
05:55 AM 41.9°F5.5°C 38.6°F3.7°C 88% 0.3 mph S0.5 kmh S 0.7 mph1.1 kmh 30.28 in1025.4 mb 0.00 in0.0 mm 0.00 in0.0 mm 0.00 in0.0 mm
06:00 AM 41.7°F5.4°C 38.4°F3.6°C 88% 0.6 mph S1.0 kmh S 2.2 mph3.5 kmh 30.28 in1025.4 mb 0.00 in0.0 mm 0.00 in0.0 mm 0.00 in0.0 mm
06:05 AM 41.7°F5.4°C 38.4°F3.6°C 88% 0.7 mph S1.1 kmh S 2.2 mph3.5 kmh 30.28 in1025.4 mb 0.00 in0.0 mm 0.00 in0.0 mm 0.00 in0.0 mm
06:10 AM 41.7°F5.4°C 38.4°F3.6°C 88% 0.2 mph S0.3 kmh S 0.7 mph1.1 kmh 30.28 in1025.4 mb 0.00 in0.0 mm 0.00 in0.0 mm 0.00 in0.0 mm
06:15 AM 41.7°F5.4°C 38.4°F3.6°C 88% 0.3 mph S0.5 kmh S 1.6 mph2.6 kmh 30.28 in1025.4 mb 0.00 in0.0 mm 0.00 in0.0 mm 0.00 in0.0 mm
06:20 AM 41.7°F5.4°C 38.4°F3.6°C 88% 0.6 mph S1.0 kmh S 1.6 mph2.6 kmh 30.29 in1025.7 mb 0.00 in0.0 mm 0.00 in0.0 mm 0.00 in0.0 mm
06:25 AM 41.7°F5.4°C 38.4°F3.6°C 88% 0.7 mph S1.1 kmh S 1.6 mph2.6 kmh 30.29 in1025.7 mb 0.00 in0.0 mm 0.00 in0.0 mm 0.00 in0.0 mm
06:30 AM 41.7°F5.4°C 38.4°F3.6°C 88% 1.0 mph S1.6 kmh S 1.6 mph2.6 kmh 30.29 in1025.7 mb 0.00 in0.0 mm 0.00 in0.0 mm 0.00 in0.0 mm
06:35 AM 41.5°F5.3°C 38.3°F3.5°C 88% 1.2 mph S1.9 kmh S 1.6 mph2.6 kmh 30.29 in1025.7 mb 0.00 in0.0 mm 0.00 in0.0 mm 0.00 in0.0 mm
06:40 AM 41.7°F5.4°C 38.7°F3.7°C 89% 1.2 mph S1.9 kmh S 1.6 mph2.6 kmh 30.29 in1025.7 mb 0.00 in0.0 mm 0.00 in0.0 mm 0.00 in0.0 mm
06:45 AM 41.5°F5.3°C 38.5°F3.6°C 89% 0.9 mph S1.4 kmh S 1.6 mph2.6 kmh 30.29 in1025.7 mb 0.00 in0.0 mm 0.00 in0.0 mm 0.00 in0.0 mm
06:50 AM 41.5°F5.3°C 38.5°F3.6°C 89% 0.6 mph S1.0 kmh S 1.6 mph2.6 kmh 30.30 in1026.1 mb 0.00 in0.0 mm 0.00 in0.0 mm 0.00 in0.0 mm
06:55 AM 41.7°F5.4°C 38.7°F3.7°C 89% 0.5 mph S0.8 kmh S 0.7 mph1.1 kmh 30.30 in1026.1 mb 0.00 in0.0 mm 0.00 in0.0 mm 0.00 in0.0 mm
07:00 AM 41.9°F5.5°C 38.9°F3.8°C 89% 0.7 mph S1.1 kmh S 1.6 mph2.6 kmh 30.31 in1026.4 mb 0.00 in0.0 mm 0.00 in0.0 mm 0.00 in0.0 mm
07:05 AM 41.7°F5.4°C 38.7°F3.7°C 89% 0.5 mph S0.8 kmh S 1.6 mph2.6 kmh 30.31 in1026.4 mb 0.00 in0.0 mm 0.00 in0.0 mm 0.00 in0.0 mm
07:10 AM 41.7°F5.4°C 38.7°F3.7°C 89% 0.3 mph S0.5 kmh S 1.6 mph2.6 kmh 30.31 in1026.4 mb 0.00 in0.0 mm 0.00 in0.0 mm 0.00 in0.0 mm
07:15 AM 41.7°F5.4°C 38.7°F3.7°C 89% 0.5 mph SE0.8 kmh SE 1.6 mph2.6 kmh 30.30 in1026.1 mb 0.00 in0.0 mm 0.00 in0.0 mm 0.00 in0.0 mm
07:20 AM 41.9°F5.5°C 39.2°F4.0°C 90% 0.6 mph E1.0 kmh E 2.2 mph3.5 kmh 30.31 in1026.4 mb 0.00 in0.0 mm 0.00 in0.0 mm 0.00 in0.0 mm
07:25 AM 42.3°F5.7°C 39.5°F4.2°C 90% 0.7 mph S1.1 kmh S 2.2 mph3.5 kmh 30.32 in1026.8 mb 0.00 in0.0 mm 0.00 in0.0 mm 0.00 in0.0 mm
07:30 AM 42.8°F6.0°C 39.8°F4.3°C 89% 0.4 mph S0.6 kmh S 2.2 mph3.5 kmh 30.31 in1026.4 mb 0.00 in0.0 mm 0.00 in0.0 mm 0.00 in0.0 mm
07:35 AM 43.2°F6.2°C 40.1°F4.5°C 89% 0.2 mph E0.3 kmh E 1.6 mph2.6 kmh 30.31 in1026.4 mb 0.00 in0.0 mm 0.00 in0.0 mm 0.00 in0.0 mm
07:40 AM 43.9°F6.6°C 40.9°F4.9°C 89% 0.9 mph ESE1.4 kmh ESE 3.8 mph6.1 kmh 30.32 in1026.8 mb 0.00 in0.0 mm 0.00 in0.0 mm 0.00 in0.0 mm
07:45 AM 44.4°F6.9°C 41.4°F5.2°C 89% 1.5 mph SE2.4 kmh SE 3.8 mph6.1 kmh 30.32 in1026.8 mb 0.00 in0.0 mm 0.00 in0.0 mm 0.00 in0.0 mm
07:50 AM 45.1°F7.3°C 42.1°F5.6°C 89% 2.2 mph ESE3.5 kmh ESE 4.5 mph7.2 kmh 30.32 in1026.8 mb 0.00 in0.0 mm 0.00 in0.0 mm 0.00 in0.0 mm
07:55 AM 45.9°F7.7°C 42.8°F6.0°C 89% 2.6 mph ESE4.2 kmh ESE 4.5 mph7.2 kmh 30.32 in1026.8 mb 0.00 in0.0 mm 0.00 in0.0 mm 0.00 in0.0 mm
08:00 AM 46.6°F8.1°C 43.5°F6.4°C 89% 2.8 mph SE4.5 kmh SE 4.5 mph7.2 kmh 30.32 in1026.8 mb 0.00 in0.0 mm 0.00 in0.0 mm 0.00 in0.0 mm
08:05 AM 47.1°F8.4°C 43.8°F6.6°C 88% 3.2 mph E5.1 kmh E 4.5 mph7.2 kmh 30.32 in1026.8 mb 0.00 in0.0 mm 0.00 in0.0 mm 0.00 in0.0 mm
08:10 AM 47.3°F8.5°C 43.9°F6.6°C 88% 3.9 mph E6.3 kmh E 5.4 mph8.7 kmh 30.33 in1027.1 mb 0.00 in0.0 mm 0.00 in0.0 mm 0.00 in0.0 mm
08:15 AM 47.7°F8.7°C 44.0°F6.7°C 87% 4.0 mph E6.4 kmh E 6.0 mph9.7 kmh 30.32 in1026.8 mb 0.00 in0.0 mm 0.00 in0.0 mm 0.00 in0.0 mm
08:20 AM 48.2°F9.0°C 44.2°F6.8°C 86% 3.3 mph E5.3 kmh E 6.0 mph9.7 kmh 30.33 in1027.1 mb 0.00 in0.0 mm 0.00 in0.0 mm 0.00 in0.0 mm
08:25 AM 48.7°F9.3°C 44.7°F7.1°C 86% 2.6 mph E4.2 kmh E 3.8 mph6.1 kmh 30.33 in1027.1 mb 0.00 in0.0 mm 0.00 in0.0 mm 0.00 in0.0 mm
08:30 AM 49.5°F9.7°C 45.1°F7.3°C 85% 2.6 mph E4.2 kmh E 5.4 mph8.7 kmh 30.33 in1027.1 mb 0.00 in0.0 mm 0.00 in0.0 mm 0.00 in0.0 mm
08:35 AM 50.0°F10.0°C 45.4°F7.4°C 84% 4.5 mph E7.2 kmh E 9.2 mph14.8 kmh 30.33 in1027.1 mb 0.00 in0.0 mm 0.00 in0.0 mm 0.00 in0.0 mm
08:40 AM 50.7°F10.4°C 45.8°F7.7°C 83% 5.0 mph E8.0 kmh E 9.2 mph14.8 kmh 30.33 in1027.1 mb 0.00 in0.0 mm 0.00 in0.0 mm 0.00 in0.0 mm
08:45 AM 51.4°F10.8°C 45.8°F7.7°C 81% 3.9 mph E6.3 kmh E 4.5 mph7.2 kmh 30.33 in1027.1 mb 0.00 in0.0 mm 0.00 in0.0 mm 0.00 in0.0 mm
08:50 AM 52.0°F11.1°C 46.0°F7.8°C 80% 4.2 mph ENE6.8 kmh ENE 6.0 mph9.7 kmh 30.33 in1027.1 mb 0.00 in0.0 mm 0.00 in0.0 mm 0.00 in0.0 mm
08:55 AM 52.3°F11.3°C 46.0°F7.8°C 79% 4.5 mph E7.2 kmh E 6.0 mph9.7 kmh 30.33 in1027.1 mb 0.00 in0.0 mm 0.00 in0.0 mm 0.00 in0.0 mm
09:00 AM 53.1°F11.7°C 46.0°F7.8°C 77% 5.2 mph E8.4 kmh E 8.3 mph13.4 kmh 30.33 in1027.1 mb 0.00 in0.0 mm 0.00 in0.0 mm 0.00 in0.0 mm
09:05 AM 53.6°F12.0°C 45.9°F7.7°C 75% 6.1 mph ENE9.8 kmh ENE 9.2 mph14.8 kmh 30.34 in1027.4 mb 0.00 in0.0 mm 0.00 in0.0 mm 0.00 in0.0 mm
09:10 AM 54.1°F12.3°C 46.0°F7.8°C 74% 6.4 mph ENE10.3 kmh ENE 9.2 mph14.8 kmh 30.34 in1027.4 mb 0.00 in0.0 mm 0.00 in0.0 mm 0.00 in0.0 mm
09:15 AM 54.9°F12.7°C 46.7°F8.2°C 74% 6.6 mph E10.6 kmh E 9.8 mph15.8 kmh 30.34 in1027.4 mb 0.00 in0.0 mm 0.00 in0.0 mm 0.00 in0.0 mm
09:20 AM 55.8°F13.2°C 46.9°F8.3°C 72% 6.5 mph ESE10.5 kmh ESE 9.8 mph15.8 kmh 30.34 in1027.4 mb 0.00 in0.0 mm 0.00 in0.0 mm 0.00 in0.0 mm
09:25 AM 56.3°F13.5°C 46.7°F8.2°C 70% 7.2 mph E11.6 kmh E 10.7 mph17.2 kmh 30.34 in1027.4 mb 0.00 in0.0 mm 0.00 in0.0 mm 0.00 in0.0 mm
09:30 AM 57.0°F13.9°C 46.6°F8.1°C 68% 6.8 mph E10.9 kmh E 10.7 mph17.2 kmh 30.34 in1027.4 mb 0.00 in0.0 mm 0.00 in0.0 mm 0.00 in0.0 mm
09:35 AM 57.6°F14.2°C 46.7°F8.2°C 67% 6.5 mph ESE10.5 kmh ESE 9.8 mph15.8 kmh 30.34 in1027.4 mb 0.00 in0.0 mm 0.00 in0.0 mm 0.00 in0.0 mm
09:40 AM 58.1°F14.5°C 46.8°F8.2°C 66% 7.1 mph ESE11.4 kmh ESE 9.8 mph15.8 kmh 30.34 in1027.4 mb 0.00 in0.0 mm 0.00 in0.0 mm 0.00 in0.0 mm
09:45 AM 58.5°F14.7°C 46.3°F7.9°C 64% 6.6 mph E10.6 kmh E 9.8 mph15.8 kmh 30.35 in1027.8 mb 0.00 in0.0 mm 0.00 in0.0 mm 0.00 in0.0 mm
09:50 AM 58.8°F14.9°C 46.7°F8.2°C 64% 6.7 mph ESE10.8 kmh ESE 9.8 mph15.8 kmh 30.34 in1027.4 mb 0.00 in0.0 mm 0.00 in0.0 mm 0.00 in0.0 mm
09:55 AM 59.2°F15.1°C 46.2°F7.9°C 62% 7.9 mph ESE12.7 kmh ESE 12.1 mph19.5 kmh 30.34 in1027.4 mb 0.00 in0.0 mm 0.00 in0.0 mm 0.00 in0.0 mm
10:00 AM 59.5°F15.3°C 46.5°F8.1°C 62% 9.3 mph ESE15.0 kmh ESE 13.6 mph21.9 kmh 30.34 in1027.4 mb 0.00 in0.0 mm 0.00 in0.0 mm 0.00 in0.0 mm
10:05 AM 59.9°F15.5°C 46.4°F8.0°C 61% 8.4 mph ESE13.5 kmh ESE 13.6 mph21.9 kmh 30.34 in1027.4 mb 0.00 in0.0 mm 0.00 in0.0 mm 0.00 in0.0 mm
10:10 AM 60.4°F15.8°C 46.9°F8.3°C 61% 7.2 mph SE11.6 kmh SE 9.8 mph15.8 kmh 30.34 in1027.4 mb 0.00 in0.0 mm 0.00 in0.0 mm 0.00 in0.0 mm
10:15 AM 61.0°F16.1°C 47.0°F8.3°C 60% 6.3 mph ESE10.1 kmh ESE 9.8 mph15.8 kmh 30.34 in1027.4 mb 0.00 in0.0 mm 0.00 in0.0 mm 0.00 in0.0 mm
10:20 AM 61.2°F16.2°C 46.3°F7.9°C 58% 6.6 mph E10.6 kmh E 9.8 mph15.8 kmh 30.34 in1027.4 mb 0.00 in0.0 mm 0.00 in0.0 mm 0.00 in0.0 mm
10:25 AM 60.8°F16.0°C 45.5°F7.5°C 57% 9.0 mph E14.5 kmh E 13.0 mph20.9 kmh 30.34 in1027.4 mb 0.00 in0.0 mm 0.00 in0.0 mm 0.00 in0.0 mm
10:30 AM 61.5°F16.4°C 45.7°F7.6°C 56% 8.9 mph E14.3 kmh E 13.0 mph20.9 kmh 30.34 in1027.4 mb 0.00 in0.0 mm 0.00 in0.0 mm 0.00 in0.0 mm
10:35 AM 62.2°F16.8°C 46.8°F8.2°C 57% 7.5 mph E12.1 kmh E 10.7 mph17.2 kmh 30.34 in1027.4 mb 0.00 in0.0 mm 0.00 in0.0 mm 0.00 in0.0 mm
10:40 AM 62.8°F17.1°C 46.9°F8.3°C 56% 7.8 mph E12.6 kmh E 9.2 mph14.8 kmh 30.34 in1027.4 mb 0.00 in0.0 mm 0.00 in0.0 mm 0.00 in0.0 mm
10:45 AM 63.1°F17.3°C 47.2°F8.4°C 56% 7.5 mph E12.1 kmh E 9.2 mph14.8 kmh 30.34 in1027.4 mb 0.00 in0.0 mm 0.00 in0.0 mm 0.00 in0.0 mm
10:50 AM 63.3°F17.4°C 46.4°F8.0°C 54% 7.1 mph E11.4 kmh E 9.8 mph15.8 kmh 30.34 in1027.4 mb 0.00 in0.0 mm 0.00 in0.0 mm 0.00 in0.0 mm
10:55 AM 63.9°F17.7°C 47.4°F8.6°C 55% 7.4 mph E11.9 kmh E 9.8 mph15.8 kmh 30.34 in1027.4 mb 0.00 in0.0 mm 0.00 in0.0 mm 0.00 in0.0 mm
11:00 AM 64.2°F17.9°C 47.2°F8.4°C 54% 7.0 mph E11.3 kmh E 9.2 mph14.8 kmh 30.34 in1027.4 mb 0.00 in0.0 mm 0.00 in0.0 mm 0.00 in0.0 mm
11:05 AM 64.6°F18.1°C 47.6°F8.7°C 54% 7.1 mph E11.4 kmh E 10.7 mph17.2 kmh 30.34 in1027.4 mb 0.00 in0.0 mm 0.00 in0.0 mm 0.00 in0.0 mm
11:10 AM 64.8°F18.2°C 47.2°F8.4°C 53% 7.7 mph ESE12.4 kmh ESE 10.7 mph17.2 kmh 30.34 in1027.4 mb 0.00 in0.0 mm 0.00 in0.0 mm 0.00 in0.0 mm
11:15 AM 64.9°F18.3°C 46.4°F8.0°C 51% 7.9 mph ESE12.7 kmh ESE 9.8 mph15.8 kmh 30.34 in1027.4 mb 0.00 in0.0 mm 0.00 in0.0 mm 0.00 in0.0 mm
11:20 AM 65.3°F18.5°C 47.7°F8.7°C 53% 7.2 mph ESE11.6 kmh ESE 9.8 mph15.8 kmh 30.34 in1027.4 mb 0.00 in0.0 mm 0.00 in0.0 mm 0.00 in0.0 mm
11:25 AM 65.8°F18.8°C 47.7°F8.7°C 52% 6.5 mph SE10.5 kmh SE 9.2 mph14.8 kmh 30.34 in1027.4 mb 0.00 in0.0 mm 0.00 in0.0 mm 0.00 in0.0 mm
11:30 AM 66.4°F19.1°C 47.7°F8.7°C 51% 7.2 mph ESE11.6 kmh ESE 9.2 mph14.8 kmh 30.34 in1027.4 mb 0.00 in0.0 mm 0.00 in0.0 mm 0.00 in0.0 mm
11:35 AM 66.7°F19.3°C 48.1°F8.9°C 51% 6.3 mph ESE10.1 kmh ESE 9.2 mph14.8 kmh 30.34 in1027.4 mb 0.00 in0.0 mm 0.00 in0.0 mm 0.00 in0.0 mm
11:40 AM 67.5°F19.7°C 47.7°F8.7°C 49% 5.5 mph SE8.9 kmh SE 8.3 mph13.4 kmh 30.33 in1027.1 mb 0.00 in0.0 mm 0.00 in0.0 mm 0.00 in0.0 mm
11:45 AM 67.3°F19.6°C 48.0°F8.9°C 50% 5.6 mph ESE9.0 kmh ESE 8.3 mph13.4 kmh 30.33 in1027.1 mb 0.00 in0.0 mm 0.00 in0.0 mm 0.00 in0.0 mm
11:50 AM 67.3°F19.6°C 47.5°F8.6°C 49% 5.7 mph ESE9.2 kmh ESE 8.3 mph13.4 kmh 30.33 in1027.1 mb 0.00 in0.0 mm 0.00 in0.0 mm 0.00 in0.0 mm
11:55 AM 67.5°F19.7°C 47.7°F8.7°C 49% 6.5 mph E10.5 kmh E 9.8 mph15.8 kmh 30.33 in1027.1 mb 0.00 in0.0 mm 0.00 in0.0 mm 0.00 in0.0 mm
12:00 PM 67.1°F19.5°C 47.3°F8.5°C 49% 6.0 mph NE9.7 kmh NE 9.8 mph15.8 kmh 30.33 in1027.1 mb 0.00 in0.0 mm 0.00 in0.0 mm 0.00 in0.0 mm
12:05 PM 67.6°F19.8°C 47.8°F8.8°C 49% 5.2 mph E8.4 kmh E 7.6 mph12.2 kmh 30.32 in1026.8 mb 0.00 in0.0 mm 0.00 in0.0 mm 0.00 in0.0 mm
12:10 PM 68.4°F20.2°C 47.9°F8.8°C 48% 5.0 mph SE8.0 kmh SE 6.9 mph11.1 kmh 30.32 in1026.8 mb 0.00 in0.0 mm 0.00 in0.0 mm 0.00 in0.0 mm
12:15 PM 68.2°F20.1°C 47.8°F8.8°C 48% 5.3 mph E8.5 kmh E 9.8 mph15.8 kmh 30.32 in1026.8 mb 0.00 in0.0 mm 0.00 in0.0 mm 0.00 in0.0 mm
12:20 PM 68.4°F20.2°C 47.9°F8.8°C 48% 5.4 mph E8.7 kmh E 9.8 mph15.8 kmh 30.32 in1026.8 mb 0.00 in0.0 mm 0.00 in0.0 mm 0.00 in0.0 mm
12:25 PM 68.4°F20.2°C 47.4°F8.6°C 47% 5.2 mph E8.4 kmh E 6.0 mph9.7 kmh 30.32 in1026.8 mb 0.00 in0.0 mm 0.00 in0.0 mm 0.00 in0.0 mm
12:30 PM 68.2°F20.1°C 46.6°F8.1°C 46% 4.3 mph ENE6.9 kmh ENE 6.0 mph9.7 kmh 30.32 in1026.8 mb 0.00 in0.0 mm 0.00 in0.0 mm 0.00 in0.0 mm
12:35 PM 68.4°F20.2°C 47.4°F8.6°C 47% 4.4 mph E7.1 kmh E 8.3 mph13.4 kmh 30.31 in1026.4 mb 0.00 in0.0 mm 0.00 in0.0 mm 0.00 in0.0 mm
12:40 PM 68.7°F20.4°C 47.7°F8.7°C 47% 5.0 mph E8.0 kmh E 8.3 mph13.4 kmh 30.31 in1026.4 mb 0.00 in0.0 mm 0.00 in0.0 mm 0.00 in0.0 mm
12:45 PM 69.3°F20.7°C 47.6°F8.7°C 46% 4.5 mph SE7.2 kmh SE 6.9 mph11.1 kmh 30.31 in1026.4 mb 0.00 in0.0 mm 0.00 in0.0 mm 0.00 in0.0 mm
12:50 PM 69.1°F20.6°C 47.5°F8.6°C 46% 5.3 mph E8.5 kmh E 7.6 mph12.2 kmh 30.30 in1026.1 mb 0.00 in0.0 mm 0.00 in0.0 mm 0.00 in0.0 mm
12:55 PM 69.4°F20.8°C 47.8°F8.8°C 46% 5.8 mph E9.3 kmh E 7.6 mph12.2 kmh 30.31 in1026.4 mb 0.00 in0.0 mm 0.00 in0.0 mm 0.00 in0.0 mm
01:00 PM 68.5°F20.3°C 47.0°F8.3°C 46% 5.7 mph ESE9.2 kmh ESE 7.6 mph12.2 kmh 30.30 in1026.1 mb 0.00 in0.0 mm 0.00 in0.0 mm 0.00 in0.0 mm
01:05 PM 67.6°F19.8°C 46.1°F7.8°C 46% 4.0 mph ESE6.4 kmh ESE 7.6 mph12.2 kmh 30.30 in1026.1 mb 0.00 in0.0 mm 0.00 in0.0 mm 0.00 in0.0 mm
01:10 PM 67.1°F19.5°C 46.2°F7.9°C 47% 2.6 mph SE4.2 kmh SE 3.8 mph6.1 kmh 30.30 in1026.1 mb 0.00 in0.0 mm 0.00 in0.0 mm 0.00 in0.0 mm
01:15 PM 66.9°F19.4°C 45.5°F7.5°C 46% 2.3 mph SSE3.7 kmh SSE 3.8 mph6.1 kmh 30.30 in1026.1 mb 0.00 in0.0 mm 0.00 in0.0 mm 0.00 in0.0 mm
01:20 PM 66.9°F19.4°C 45.5°F7.5°C 46% 2.2 mph NE3.5 kmh NE 3.8 mph6.1 kmh 30.29 in1025.7 mb 0.00 in0.0 mm 0.00 in0.0 mm 0.00 in0.0 mm
01:25 PM 67.6°F19.8°C 46.1°F7.8°C 46% 2.9 mph NW4.7 kmh NW 3.8 mph6.1 kmh 30.28 in1025.4 mb 0.00 in0.0 mm 0.00 in0.0 mm 0.00 in0.0 mm
01:30 PM 68.5°F20.3°C 46.4°F8.0°C 45% 3.3 mph NW5.3 kmh NW 5.4 mph8.7 kmh 30.28 in1025.4 mb 0.00 in0.0 mm 0.00 in0.0 mm 0.00 in0.0 mm
01:35 PM 68.7°F20.4°C 45.9°F7.7°C 44% 3.4 mph N5.5 kmh N 6.9 mph11.1 kmh 30.29 in1025.7 mb 0.00 in0.0 mm 0.00 in0.0 mm 0.00 in0.0 mm
01:40 PM 68.4°F20.2°C 45.0°F7.2°C 43% 4.7 mph N7.6 kmh N 9.2 mph14.8 kmh 30.29 in1025.7 mb 0.00 in0.0 mm 0.00 in0.0 mm 0.00 in0.0 mm
01:45 PM 68.2°F20.1°C 45.5°F7.5°C 44% 5.9 mph NNE9.5 kmh NNE 9.2 mph14.8 kmh 30.28 in1025.4 mb 0.00 in0.0 mm 0.00 in0.0 mm 0.00 in0.0 mm
01:50 PM 68.0°F20.0°C 45.3°F7.4°C 44% 5.0 mph NE8.0 kmh NE 7.6 mph12.2 kmh 30.28 in1025.4 mb 0.00 in0.0 mm 0.00 in0.0 mm 0.00 in0.0 mm
01:55 PM 68.4°F20.2°C 45.0°F7.2°C 43% 4.9 mph NNE7.9 kmh NNE 7.6 mph12.2 kmh 30.28 in1025.4 mb 0.00 in0.0 mm 0.00 in0.0 mm 0.00 in0.0 mm
02:00 PM 68.5°F20.3°C 45.2°F7.3°C 43% 4.9 mph N7.9 kmh N 7.6 mph12.2 kmh 30.28 in1025.4 mb 0.00 in0.0 mm 0.00 in0.0 mm 0.00 in0.0 mm
02:05 PM 68.9°F20.5°C 45.5°F7.5°C 43% 4.5 mph NNW7.2 kmh NNW 6.0 mph9.7 kmh 30.27 in1025.1 mb 0.00 in0.0 mm 0.00 in0.0 mm 0.00 in0.0 mm
02:10 PM 68.5°F20.3°C 44.6°F7.0°C 42% 5.3 mph NNW8.5 kmh NNW 7.6 mph12.2 kmh 30.28 in1025.4 mb 0.00 in0.0 mm 0.00 in0.0 mm 0.00 in0.0 mm
02:15 PM 68.4°F20.2°C 45.0°F7.2°C 43% 4.9 mph NW7.9 kmh NW 7.6 mph12.2 kmh 30.28 in1025.4 mb 0.00 in0.0 mm 0.00 in0.0 mm 0.00 in0.0 mm
02:20 PM 68.7°F20.4°C 45.3°F7.4°C 43% 3.6 mph N5.8 kmh N 5.4 mph8.7 kmh 30.27 in1025.1 mb 0.00 in0.0 mm 0.00 in0.0 mm 0.00 in0.0 mm
02:25 PM 68.5°F20.3°C 45.8°F7.7°C 44% 3.5 mph E5.6 kmh E 4.5 mph7.2 kmh 30.28 in1025.4 mb 0.00 in0.0 mm 0.00 in0.0 mm 0.00 in0.0 mm
02:30 PM 68.7°F20.4°C 45.3°F7.4°C 43% 3.4 mph ESE5.5 kmh ESE 4.5 mph7.2 kmh 30.28 in1025.4 mb 0.00 in0.0 mm 0.00 in0.0 mm 0.00 in0.0 mm
02:35 PM 68.4°F20.2°C 45.0°F7.2°C 43% 2.4 mph SE3.9 kmh SE 3.8 mph6.1 kmh 30.28 in1025.4 mb 0.00 in0.0 mm 0.00 in0.0 mm 0.00 in0.0 mm
02:40 PM 68.2°F20.1°C 44.2°F6.8°C 42% 2.3 mph W3.7 kmh W 4.5 mph7.2 kmh 30.28 in1025.4 mb 0.00 in0.0 mm 0.00 in0.0 mm 0.00 in0.0 mm
02:45 PM 68.5°F20.3°C 44.6°F7.0°C 42% 2.7 mph W4.3 kmh W 4.5 mph7.2 kmh 30.27 in1025.1 mb 0.00 in0.0 mm 0.00 in0.0 mm 0.00 in0.0 mm
02:50 PM 69.4°F20.8°C 46.0°F7.8°C 43% 3.3 mph SSW5.3 kmh SSW 5.4 mph8.7 kmh 30.27 in1025.1 mb 0.00 in0.0 mm 0.00 in0.0 mm 0.00 in0.0 mm
02:55 PM 69.4°F20.8°C 46.0°F7.8°C 43% 4.1 mph SE6.6 kmh SE 6.0 mph9.7 kmh 30.27 in1025.1 mb 0.00 in0.0 mm 0.00 in0.0 mm 0.00 in0.0 mm
03:00 PM 69.6°F20.9°C 46.2°F7.9°C 43% 4.5 mph SE7.2 kmh SE 6.0 mph9.7 kmh 30.27 in1025.1 mb 0.00 in0.0 mm 0.00 in0.0 mm 0.00 in0.0 mm
03:05 PM 69.4°F20.8°C 45.4°F7.4°C 42% 3.4 mph SE5.5 kmh SE 6.0 mph9.7 kmh 30.27 in1025.1 mb 0.00 in0.0 mm 0.00 in0.0 mm 0.00 in0.0 mm
03:10 PM 69.4°F20.8°C 45.4°F7.4°C 42% 2.2 mph S3.5 kmh S 3.8 mph6.1 kmh 30.27 in1025.1 mb 0.00 in0.0 mm 0.00 in0.0 mm 0.00 in0.0 mm
03:15 PM 69.6°F20.9°C 46.2°F7.9°C 43% 2.5 mph SW4.0 kmh SW 4.5 mph7.2 kmh 30.27 in1025.1 mb 0.00 in0.0 mm 0.00 in0.0 mm 0.00 in0.0 mm
03:20 PM 69.4°F20.8°C 45.4°F7.4°C 42% 3.7 mph SSE6.0 kmh SSE 6.0 mph9.7 kmh 30.27 in1025.1 mb 0.00 in0.0 mm 0.00 in0.0 mm 0.00 in0.0 mm
03:25 PM 68.9°F20.5°C 44.9°F7.2°C 42% 3.8 mph ESE6.1 kmh ESE 6.0 mph9.7 kmh 30.27 in1025.1 mb 0.00 in0.0 mm 0.00 in0.0 mm 0.00 in0.0 mm
03:30 PM 68.7°F20.4°C 44.7°F7.1°C 42% 2.7 mph E4.3 kmh E 4.5 mph7.2 kmh 30.27 in1025.1 mb 0.00 in0.0 mm 0.00 in0.0 mm 0.00 in0.0 mm
03:35 PM 68.9°F20.5°C 44.9°F7.2°C 42% 2.2 mph ESE3.5 kmh ESE 3.8 mph6.1 kmh 30.27 in1025.1 mb 0.00 in0.0 mm 0.00 in0.0 mm 0.00 in0.0 mm
03:40 PM 67.8°F19.9°C 43.3°F6.3°C 41% 2.7 mph NE4.3 kmh NE 5.4 mph8.7 kmh 30.27 in1025.1 mb 0.00 in0.0 mm 0.00 in0.0 mm 0.00 in0.0 mm
03:45 PM 66.9°F19.4°C 43.1°F6.2°C 42% 3.2 mph E5.1 kmh E 5.4 mph8.7 kmh 30.27 in1025.1 mb 0.00 in0.0 mm 0.00 in0.0 mm 0.00 in0.0 mm
03:50 PM 65.8°F18.8°C 42.1°F5.6°C 42% 3.3 mph E5.3 kmh E 5.4 mph8.7 kmh 30.27 in1025.1 mb 0.00 in0.0 mm 0.00 in0.0 mm 0.00 in0.0 mm
03:55 PM 64.8°F18.2°C 41.8°F5.4°C 43% 2.3 mph E3.7 kmh E 5.4 mph8.7 kmh 30.27 in1025.1 mb 0.00 in0.0 mm 0.00 in0.0 mm 0.00 in0.0 mm
04:00 PM 64.8°F18.2°C 42.4°F5.8°C 44% 1.4 mph SE2.3 kmh SE 2.2 mph3.5 kmh 30.27 in1025.1 mb 0.00 in0.0 mm 0.00 in0.0 mm 0.00 in0.0 mm
04:05 PM 65.5°F18.6°C 43.0°F6.1°C 44% 2.3 mph ESE3.7 kmh ESE 3.8 mph6.1 kmh 30.27 in1025.1 mb 0.00 in0.0 mm 0.00 in0.0 mm 0.00 in0.0 mm
04:10 PM 65.1°F18.4°C 42.1°F5.6°C 43% 2.6 mph ESE4.2 kmh ESE 3.8 mph6.1 kmh 30.27 in1025.1 mb 0.00 in0.0 mm 0.00 in0.0 mm 0.00 in0.0 mm
04:15 PM 65.1°F18.4°C 42.1°F5.6°C 43% 1.4 mph SE2.3 kmh SE 3.8 mph6.1 kmh 30.27 in1025.1 mb 0.00 in0.0 mm 0.00 in0.0 mm 0.00 in0.0 mm
04:20 PM 65.1°F18.4°C 42.1°F5.6°C 43% 0.7 mph S1.1 kmh S 2.2 mph3.5 kmh 30.27 in1025.1 mb 0.00 in0.0 mm 0.00 in0.0 mm 0.00 in0.0 mm
04:25 PM 64.2°F17.9°C 41.9°F5.5°C 44% 1.3 mph SSE2.1 kmh SSE 2.2 mph3.5 kmh 30.27 in1025.1 mb 0.00 in0.0 mm 0.00 in0.0 mm 0.00 in0.0 mm
04:30 PM 63.7°F17.6°C 42.0°F5.6°C 45% 2.4 mph E3.9 kmh E 3.8 mph6.1 kmh 30.27 in1025.1 mb 0.00 in0.0 mm 0.00 in0.0 mm 0.00 in0.0 mm
04:35 PM 62.8°F17.1°C 41.1°F5.1°C 45% 2.3 mph ENE3.7 kmh ENE 3.8 mph6.1 kmh 30.27 in1025.1 mb 0.00 in0.0 mm 0.00 in0.0 mm 0.00 in0.0 mm
04:40 PM 62.6°F17.0°C 41.5°F5.3°C 46% 1.5 mph E2.4 kmh E 2.2 mph3.5 kmh 30.27 in1025.1 mb 0.00 in0.0 mm 0.00 in0.0 mm 0.00 in0.0 mm
04:45 PM 62.2°F16.8°C 41.8°F5.4°C 47% 0.7 mph ESE1.1 kmh ESE 2.2 mph3.5 kmh 30.27 in1025.1 mb 0.00 in0.0 mm 0.00 in0.0 mm 0.00 in0.0 mm
04:50 PM 62.1°F16.7°C 42.7°F5.9°C 49% Calm Calm -- 30.28 in1025.4 mb 0.00 in0.0 mm 0.00 in0.0 mm 0.00 in0.0 mm
04:55 PM 61.9°F16.6°C 42.5°F5.8°C 49% Calm Calm -- 30.27 in1025.1 mb 0.00 in0.0 mm 0.00 in0.0 mm 0.00 in0.0 mm
05:00 PM 61.7°F16.5°C 42.9°F6.1°C 50% 0.1 mph N0.2 kmh N 0.7 mph1.1 kmh 30.28 in1025.4 mb 0.00 in0.0 mm 0.00 in0.0 mm 0.00 in0.0 mm
05:05 PM 61.7°F16.5°C 42.4°F5.8°C 49% 0.3 mph N0.5 kmh N 1.6 mph2.6 kmh 30.28 in1025.4 mb 0.00 in0.0 mm 0.00 in0.0 mm 0.00 in0.0 mm
05:10 PM 61.7°F16.5°C 42.4°F5.8°C 49% 0.5 mph N0.8 kmh N 1.6 mph2.6 kmh 30.27 in1025.1 mb 0.00 in0.0 mm 0.00 in0.0 mm 0.00 in0.0 mm
05:15 PM 61.5°F16.4°C 43.2°F6.2°C 51% 0.3 mph N0.5 kmh N 1.6 mph2.6 kmh 30.28 in1025.4 mb 0.00 in0.0 mm 0.00 in0.0 mm 0.00 in0.0 mm
05:20 PM 61.0°F16.1°C 43.2°F6.2°C 52% Calm Calm -- 30.28 in1025.4 mb 0.00 in0.0 mm 0.00 in0.0 mm 0.00 in0.0 mm
05:25 PM 60.4°F15.8°C 43.2°F6.2°C 53% 0.2 mph S0.3 kmh S 0.7 mph1.1 kmh 30.28 in1025.4 mb 0.00 in0.0 mm 0.00 in0.0 mm 0.00 in0.0 mm
05:30 PM 59.9°F15.5°C 43.2°F6.2°C 54% 0.2 mph S0.3 kmh S 0.7 mph1.1 kmh 30.28 in1025.4 mb 0.00 in0.0 mm 0.00 in0.0 mm 0.00 in0.0 mm
05:35 PM 59.4°F15.2°C 43.2°F6.2°C 55% 0.1 mph SW0.2 kmh SW 0.7 mph1.1 kmh 30.28 in1025.4 mb 0.00 in0.0 mm 0.00 in0.0 mm 0.00 in0.0 mm
05:40 PM 58.8°F14.9°C 43.2°F6.2°C 56% 0.4 mph SW0.6 kmh SW 0.7 mph1.1 kmh 30.29 in1025.7 mb 0.00 in0.0 mm 0.00 in0.0 mm 0.00 in0.0 mm
05:45 PM 58.5°F14.7°C 43.3°F6.3°C 57% 0.3 mph SW0.5 kmh SW 0.7 mph1.1 kmh 30.28 in1025.4 mb 0.00 in0.0 mm 0.00 in0.0 mm 0.00 in0.0 mm
05:50 PM 58.1°F14.5°C 43.0°F6.1°C 57% 0.3 mph WSW0.5 kmh WSW 1.6 mph2.6 kmh 30.29 in1025.7 mb 0.00 in0.0 mm 0.00 in0.0 mm 0.00 in0.0 mm
05:55 PM 57.6°F14.2°C 42.9°F6.1°C 58% 0.8 mph WSW1.3 kmh WSW 2.2 mph3.5 kmh 30.29 in1025.7 mb 0.00 in0.0 mm 0.00 in0.0 mm 0.00 in0.0 mm
06:00 PM 57.2°F14.0°C 43.0°F6.1°C 59% 1.2 mph WSW1.9 kmh WSW 3.1 mph5.0 kmh 30.29 in1025.7 mb 0.00 in0.0 mm 0.00 in0.0 mm 0.00 in0.0 mm
06:05 PM 57.2°F14.0°C 43.5°F6.4°C 60% 1.5 mph WSW2.4 kmh WSW 3.1 mph5.0 kmh 30.29 in1025.7 mb 0.00 in0.0 mm 0.00 in0.0 mm 0.00 in0.0 mm
06:10 PM 57.0°F13.9°C 43.3°F6.3°C 60% 0.9 mph SW1.4 kmh SW 3.1 mph5.0 kmh 30.30 in1026.1 mb 0.00 in0.0 mm 0.00 in0.0 mm 0.00 in0.0 mm
06:15 PM 56.7°F13.7°C 43.4°F6.3°C 61% 0.5 mph SE0.8 kmh SE 1.6 mph2.6 kmh 30.30 in1026.1 mb 0.00 in0.0 mm 0.00 in0.0 mm 0.00 in0.0 mm
06:20 PM 56.3°F13.5°C 43.9°F6.6°C 63% 1.0 mph SSE1.6 kmh SSE 1.6 mph2.6 kmh 30.30 in1026.1 mb 0.00 in0.0 mm 0.00 in0.0 mm 0.00 in0.0 mm
06:25 PM 55.9°F13.3°C 43.9°F6.6°C 64% 0.6 mph S1.0 kmh S 1.6 mph2.6 kmh 30.30 in1026.1 mb 0.00 in0.0 mm 0.00 in0.0 mm 0.00 in0.0 mm
06:30 PM 55.6°F13.1°C 43.6°F6.4°C 64% 0.5 mph S0.8 kmh S 0.7 mph1.1 kmh 30.30 in1026.1 mb 0.00 in0.0 mm 0.00 in0.0 mm 0.00 in0.0 mm
06:35 PM 55.2°F12.9°C 43.7°F6.5°C 65% 0.6 mph S1.0 kmh S 1.6 mph2.6 kmh 30.30 in1026.1 mb 0.00 in0.0 mm 0.00 in0.0 mm 0.00 in0.0 mm
06:40 PM 54.7°F12.6°C 43.6°F6.4°C 66% 1.0 mph SE1.6 kmh SE 1.6 mph2.6 kmh 30.31 in1026.4 mb 0.00 in0.0 mm 0.00 in0.0 mm 0.00 in0.0 mm
06:45 PM 54.5°F12.5°C 43.4°F6.3°C 66% 1.5 mph SSE2.4 kmh SSE 1.6 mph2.6 kmh 30.30 in1026.1 mb 0.00 in0.0 mm 0.00 in0.0 mm 0.00 in0.0 mm
06:50 PM 54.1°F12.3°C 43.4°F6.3°C 67% 1.6 mph S2.6 kmh S 1.6 mph2.6 kmh 30.31 in1026.4 mb 0.00 in0.0 mm 0.00 in0.0 mm 0.00 in0.0 mm
06:55 PM 53.8°F12.1°C 43.5°F6.4°C 68% 1.5 mph SSE2.4 kmh SSE 1.6 mph2.6 kmh 30.31 in1026.4 mb 0.00 in0.0 mm 0.00 in0.0 mm 0.00 in0.0 mm
07:00 PM 53.6°F12.0°C 43.3°F6.3°C 68% 0.8 mph SSE1.3 kmh SSE 1.6 mph2.6 kmh 30.31 in1026.4 mb 0.00 in0.0 mm 0.00 in0.0 mm 0.00 in0.0 mm
07:05 PM 53.4°F11.9°C 43.5°F6.4°C 69% 0.1 mph S0.2 kmh S 0.7 mph1.1 kmh 30.31 in1026.4 mb 0.00 in0.0 mm 0.00 in0.0 mm 0.00 in0.0 mm
07:10 PM 53.2°F11.8°C 43.3°F6.3°C 69% Calm Calm -- 30.32 in1026.8 mb 0.00 in0.0 mm 0.00 in0.0 mm 0.00 in0.0 mm
07:15 PM 53.1°F11.7°C 43.2°F6.2°C 69% Calm Calm -- 30.32 in1026.8 mb 0.00 in0.0 mm 0.00 in0.0 mm 0.00 in0.0 mm
07:20 PM 52.5°F11.4°C 42.7°F5.9°C 69% 0.2 mph S0.3 kmh S 0.7 mph1.1 kmh 30.32 in1026.8 mb 0.00 in0.0 mm 0.00 in0.0 mm 0.00 in0.0 mm
07:25 PM 52.5°F11.4°C 43.0°F6.1°C 70% 0.3 mph S0.5 kmh S 0.7 mph1.1 kmh 30.32 in1026.8 mb 0.00 in0.0 mm 0.00 in0.0 mm 0.00 in0.0 mm
07:30 PM 52.5°F11.4°C 43.0°F6.1°C 70% 0.1 mph S0.2 kmh S 0.7 mph1.1 kmh 30.32 in1026.8 mb 0.00 in0.0 mm 0.00 in0.0 mm 0.00 in0.0 mm
07:35 PM 52.2°F11.2°C 42.7°F5.9°C 70% 0.3 mph SSW0.5 kmh SSW 1.6 mph2.6 kmh 30.32 in1026.8 mb 0.00 in0.0 mm 0.00 in0.0 mm 0.00 in0.0 mm
07:40 PM 52.0°F11.1°C 42.9°F6.1°C 71% 0.2 mph SSW0.3 kmh SSW 1.6 mph2.6 kmh 30.32 in1026.8 mb 0.00 in0.0 mm 0.00 in0.0 mm 0.00 in0.0 mm
07:45 PM 52.0°F11.1°C 42.9°F6.1°C 71% Calm Calm -- 30.32 in1026.8 mb 0.00 in0.0 mm 0.00 in0.0 mm 0.00 in0.0 mm
07:50 PM 51.8°F11.0°C 42.7°F5.9°C 71% Calm Calm -- 30.32 in1026.8 mb 0.00 in0.0 mm 0.00 in0.0 mm 0.00 in0.0 mm
07:55 PM 51.8°F11.0°C 42.7°F5.9°C 71% 0.3 mph S0.5 kmh S 0.7 mph1.1 kmh 30.32 in1026.8 mb 0.00 in0.0 mm 0.00 in0.0 mm 0.00 in0.0 mm
08:00 PM 51.6°F10.9°C 42.5°F5.8°C 71% 1.0 mph SSE1.6 kmh SSE 1.6 mph2.6 kmh 30.32 in1026.8 mb 0.00 in0.0 mm 0.00 in0.0 mm 0.00 in0.0 mm
08:05 PM 51.6°F10.9°C 42.5°F5.8°C 71% 0.9 mph SE1.4 kmh SE 1.6 mph2.6 kmh 30.32 in1026.8 mb 0.00 in0.0 mm 0.00 in0.0 mm 0.00 in0.0 mm
08:10 PM 51.6°F10.9°C 42.5°F5.8°C 71% 0.3 mph SE0.5 kmh SE 0.7 mph1.1 kmh 30.32 in1026.8 mb 0.00 in0.0 mm 0.00 in0.0 mm 0.00 in0.0 mm
08:15 PM 51.4°F10.8°C 42.4°F5.8°C 71% 0.4 mph SE0.6 kmh SE 2.2 mph3.5 kmh 30.33 in1027.1 mb 0.00 in0.0 mm 0.00 in0.0 mm 0.00 in0.0 mm
08:20 PM 51.4°F10.8°C 42.4°F5.8°C 71% 0.9 mph SE1.4 kmh SE 2.2 mph3.5 kmh 30.33 in1027.1 mb 0.00 in0.0 mm 0.00 in0.0 mm 0.00 in0.0 mm
08:25 PM 51.3°F10.7°C 42.2°F5.7°C 71% 1.1 mph SE1.8 kmh SE 2.2 mph3.5 kmh 30.33 in1027.1 mb 0.00 in0.0 mm 0.00 in0.0 mm 0.00 in0.0 mm
08:30 PM 51.1°F10.6°C 42.0°F5.6°C 71% 0.8 mph SE1.3 kmh SE 2.2 mph3.5 kmh 30.33 in1027.1 mb 0.00 in0.0 mm 0.00 in0.0 mm 0.00 in0.0 mm
08:35 PM 50.7°F10.4°C 42.0°F5.6°C 72% 1.1 mph SSE1.8 kmh SSE 1.6 mph2.6 kmh 30.33 in1027.1 mb 0.00 in0.0 mm 0.00 in0.0 mm 0.00 in0.0 mm
08:40 PM 50.7°F10.4°C 42.0°F5.6°C 72% 1.5 mph S2.4 kmh S 1.6 mph2.6 kmh 30.33 in1027.1 mb 0.00 in0.0 mm 0.00 in0.0 mm 0.00 in0.0 mm
08:45 PM 50.7°F10.4°C 42.0°F5.6°C 72% 1.6 mph S2.6 kmh S 2.2 mph3.5 kmh 30.33 in1027.1 mb 0.00 in0.0 mm 0.00 in0.0 mm 0.00 in0.0 mm
08:50 PM 50.7°F10.4°C 42.0°F5.6°C 72% 1.6 mph S2.6 kmh S 2.2 mph3.5 kmh 30.33 in1027.1 mb 0.00 in0.0 mm 0.00 in0.0 mm 0.00 in0.0 mm
08:55 PM 50.5°F10.3°C 42.2°F5.7°C 73% 1.3 mph S2.1 kmh S 1.6 mph2.6 kmh 30.34 in1027.4 mb 0.00 in0.0 mm 0.00 in0.0 mm 0.00 in0.0 mm
09:00 PM 50.4°F10.2°C 42.0°F5.6°C 73% 1.1 mph S1.8 kmh S 1.6 mph2.6 kmh 30.34 in1027.4 mb 0.00 in0.0 mm 0.00 in0.0 mm 0.00 in0.0 mm
09:05 PM 50.0°F10.0°C 41.7°F5.4°C 73% 1.4 mph SSE2.3 kmh SSE 2.2 mph3.5 kmh 30.34 in1027.4 mb 0.00 in0.0 mm 0.00 in0.0 mm 0.00 in0.0 mm
09:10 PM 50.0°F10.0°C 42.0°F5.6°C 74% 2.0 mph SE3.2 kmh SE 3.1 mph5.0 kmh 30.34 in1027.4 mb 0.00 in0.0 mm 0.00 in0.0 mm 0.00 in0.0 mm
09:15 PM 49.8°F9.9°C 41.9°F5.5°C 74% 2.5 mph SE4.0 kmh SE 3.1 mph5.0 kmh 30.34 in1027.4 mb 0.00 in0.0 mm 0.00 in0.0 mm 0.00 in0.0 mm
09:20 PM 49.8°F9.9°C 41.9°F5.5°C 74% 2.8 mph SE4.5 kmh SE 3.1 mph5.0 kmh 30.34 in1027.4 mb 0.00 in0.0 mm 0.00 in0.0 mm 0.00 in0.0 mm
09:25 PM 50.0°F10.0°C 42.0°F5.6°C 74% 2.0 mph SSE3.2 kmh SSE 3.1 mph5.0 kmh 30.34 in1027.4 mb 0.00 in0.0 mm 0.00 in0.0 mm 0.00 in0.0 mm
09:30 PM 49.8°F9.9°C 41.9°F5.5°C 74% 0.8 mph S1.3 kmh S 3.1 mph5.0 kmh 30.35 in1027.8 mb 0.00 in0.0 mm 0.00 in0.0 mm 0.00 in0.0 mm
09:35 PM 49.6°F9.8°C 41.7°F5.4°C 74% 0.6 mph S1.0 kmh S 1.6 mph2.6 kmh 30.35 in1027.8 mb 0.00 in0.0 mm 0.00 in0.0 mm 0.00 in0.0 mm
09:40 PM 49.5°F9.7°C 41.9°F5.5°C 75% 0.9 mph S1.4 kmh S 1.6 mph2.6 kmh 30.35 in1027.8 mb 0.00 in0.0 mm 0.00 in0.0 mm 0.00 in0.0 mm
09:45 PM 49.3°F9.6°C 41.7°F5.4°C 75% 0.9 mph SSE1.4 kmh SSE 2.2 mph3.5 kmh 30.35 in1027.8 mb 0.00 in0.0 mm 0.00 in0.0 mm 0.00 in0.0 mm
09:50 PM 49.1°F9.5°C 41.5°F5.3°C 75% 1.0 mph SSE1.6 kmh SSE 2.2 mph3.5 kmh 30.35 in1027.8 mb 0.00 in0.0 mm 0.00 in0.0 mm 0.00 in0.0 mm
09:55 PM 48.9°F9.4°C 41.7°F5.4°C 76% 1.0 mph S1.6 kmh S 1.6 mph2.6 kmh 30.35 in1027.8 mb 0.00 in0.0 mm 0.00 in0.0 mm 0.00 in0.0 mm
10:00 PM 48.9°F9.4°C 41.7°F5.4°C 76% 1.1 mph S1.8 kmh S 2.2 mph3.5 kmh 30.35 in1027.8 mb 0.00 in0.0 mm 0.00 in0.0 mm 0.00 in0.0 mm
10:05 PM 48.7°F9.3°C 41.2°F5.1°C 75% 1.0 mph SSW1.6 kmh SSW 2.2 mph3.5 kmh 30.35 in1027.8 mb 0.00 in0.0 mm 0.00 in0.0 mm 0.00 in0.0 mm
10:10 PM 48.4°F9.1°C 41.2°F5.1°C 76% 0.5 mph SW0.8 kmh SW 1.6 mph2.6 kmh 30.35 in1027.8 mb 0.00 in0.0 mm 0.00 in0.0 mm 0.00 in0.0 mm
10:15 PM 48.4°F9.1°C 41.2°F5.1°C 76% 0.2 mph SW0.3 kmh SW 0.7 mph1.1 kmh 30.35 in1027.8 mb 0.00 in0.0 mm 0.00 in0.0 mm 0.00 in0.0 mm
10:20 PM 48.4°F9.1°C 41.2°F5.1°C 76% 0.9 mph S1.4 kmh S 2.2 mph3.5 kmh 30.35 in1027.8 mb 0.00 in0.0 mm 0.00 in0.0 mm 0.00 in0.0 mm
10:25 PM 48.2°F9.0°C 41.0°F5.0°C 76% 1.9 mph S3.1 kmh S 2.2 mph3.5 kmh 30.35 in1027.8 mb 0.00 in0.0 mm 0.00 in0.0 mm 0.00 in0.0 mm
10:30 PM 48.0°F8.9°C 41.2°F5.1°C 77% 2.0 mph S3.2 kmh S 2.2 mph3.5 kmh 30.35 in1027.8 mb 0.00 in0.0 mm 0.00 in0.0 mm 0.00 in0.0 mm
10:35 PM 47.8°F8.8°C 41.0°F5.0°C 77% 1.5 mph S2.4 kmh S 2.2 mph3.5 kmh 30.36 in1028.1 mb 0.00 in0.0 mm 0.00 in0.0 mm 0.00 in0.0 mm
10:40 PM 47.8°F8.8°C 41.0°F5.0°C 77% 1.4 mph S2.3 kmh S 2.2 mph3.5 kmh 30.35 in1027.8 mb 0.00 in0.0 mm 0.00 in0.0 mm 0.00 in0.0 mm
10:45 PM 47.8°F8.8°C 41.0°F5.0°C 77% 0.9 mph S1.4 kmh S 2.2 mph3.5 kmh 30.36 in1028.1 mb 0.00 in0.0 mm 0.00 in0.0 mm 0.00 in0.0 mm
10:50 PM 47.7°F8.7°C 40.8°F4.9°C 77% 0.2 mph WNW0.3 kmh WNW 1.6 mph2.6 kmh 30.36 in1028.1 mb 0.00 in0.0 mm 0.00 in0.0 mm 0.00 in0.0 mm
10:55 PM 47.3°F8.5°C 40.5°F4.7°C 77% 0.1 mph NW0.2 kmh NW 1.6 mph2.6 kmh 30.36 in1028.1 mb 0.00 in0.0 mm 0.00 in0.0 mm 0.00 in0.0 mm
11:00 PM 46.9°F8.3°C 40.4°F4.7°C 78% Calm Calm -- 30.36 in1028.1 mb 0.00 in0.0 mm 0.00 in0.0 mm 0.00 in0.0 mm
11:05 PM 47.1°F8.4°C 40.6°F4.8°C 78% Calm Calm -- 30.36 in1028.1 mb 0.00 in0.0 mm 0.00 in0.0 mm 0.00 in0.0 mm
11:10 PM 46.9°F8.3°C 40.4°F4.7°C 78% Calm Calm -- 30.36 in1028.1 mb 0.00 in0.0 mm 0.00 in0.0 mm 0.00 in0.0 mm
11:15 PM 46.9°F8.3°C 40.4°F4.7°C 78% Calm Calm -- 30.36 in1028.1 mb 0.00 in0.0 mm 0.00 in0.0 mm 0.00 in0.0 mm
11:20 PM 46.8°F8.2°C 40.3°F4.6°C 78% Calm Calm -- 30.36 in1028.1 mb 0.00 in0.0 mm 0.00 in0.0 mm 0.00 in0.0 mm
11:25 PM 46.8°F8.2°C 40.3°F4.6°C 78% Calm Calm -- 30.37 in1028.4 mb 0.00 in0.0 mm 0.00 in0.0 mm 0.00 in0.0 mm
11:30 PM 46.6°F8.1°C 40.1°F4.5°C 78% Calm Calm -- 30.36 in1028.1 mb 0.00 in0.0 mm 0.00 in0.0 mm 0.00 in0.0 mm
11:35 PM 46.6°F8.1°C 40.1°F4.5°C 78% 0.1 mph SSW0.2 kmh SSW 0.7 mph1.1 kmh 30.37 in1028.4 mb 0.00 in0.0 mm 0.00 in0.0 mm 0.00 in0.0 mm
11:40 PM 46.4°F8.0°C 40.2°F4.6°C 79% 0.2 mph SSW0.3 kmh SSW 1.6 mph2.6 kmh 30.36 in1028.1 mb 0.00 in0.0 mm 0.00 in0.0 mm 0.00 in0.0 mm
11:45 PM 46.4°F8.0°C 40.2°F4.6°C 79% 0.6 mph S1.0 kmh S 1.6 mph2.6 kmh 30.37 in1028.4 mb 0.00 in0.0 mm 0.00 in0.0 mm 0.00 in0.0 mm
11:50 PM 46.2°F7.9°C 40.1°F4.5°C 79% 0.6 mph S1.0 kmh S 1.6 mph2.6 kmh 30.37 in1028.4 mb 0.00 in0.0 mm 0.00 in0.0 mm 0.00 in0.0 mm
11:55 PM 46.2°F7.9°C 40.1°F4.5°C 79% 0.2 mph S0.3 kmh S 0.7 mph1.1 kmh 30.37 in1028.4 mb 0.00 in0.0 mm 0.00 in0.0 mm 0.00 in0.0 mm